Time;durP1;ratioP1;P1;durP2;ratioP2;P2;SDS_P1;SDS_P2;PMS_P1;PMS_P2;Temp;Humidity;BMP_temperature;BMP_pressure;BME280_temperature;BME280_humidity;BME280_pressure;Samples;Min_cycle;Max_cycle;Signal;HPM_P1;HPM_P2
2023/10/18 00:01:00;;;;;;;6.53;5.15;;;;;;;8.80;75.72;101015.94;3619448;39;20122;-67
2023/10/18 00:03:33;;;;;;;8.00;5.47;;;;;;;8.84;75.94;101005.94;3615179;39;20116;-67
2023/10/18 00:06:16;;;;;;;8.40;5.45;;;;;;;8.71;75.27;100989.59;3615095;39;20107;-66
2023/10/18 00:08:45;;;;;;;9.02;5.65;;;;;;;8.84;75.67;101016.66;3604920;39;20050;-67
2023/10/18 00:11:11;;;;;;;8.38;5.43;;;;;;;8.83;76.41;101017.59;3616311;39;20047;-67
2023/10/18 00:13:37;;;;;;;7.60;5.60;;;;;;;8.64;75.18;100971.25;3618088;39;20046;-67
2023/10/18 00:16:06;;;;;;;8.50;5.95;;;;;;;8.33;75.40;100919.22;3617361;39;20392;-67
2023/10/18 00:18:34;;;;;;;9.98;5.72;;;;;;;8.68;75.57;100976.38;3616450;39;20050;-67
2023/10/18 00:21:05;;;;;;;7.20;5.55;;;;;;;8.85;75.43;101007.69;3617681;39;20123;-67
2023/10/18 00:23:32;;;;;;;8.10;5.53;;;;;;;8.84;75.59;101013.97;3615009;39;20466;-67
2023/10/18 00:26:07;;;;;;;8.63;6.00;;;;;;;8.81;75.64;101003.41;3617756;39;20123;-67
2023/10/18 00:28:38;;;;;;;7.63;5.57;;;;;;;8.77;75.36;100993.78;3615204;39;20073;-67
2023/10/18 00:31:18;;;;;;;7.00;5.60;;;;;;;8.84;75.09;101001.44;3615407;39;20074;-67
2023/10/18 00:33:45;;;;;;;6.95;5.75;;;;;;;8.83;75.58;100993.47;3614628;39;20072;-67
2023/10/18 00:36:12;;;;;;;7.07;5.68;;;;;;;8.83;75.78;101009.56;3614815;39;20047;-67
2023/10/18 00:38:39;;;;;;;8.52;5.53;;;;;;;8.80;74.66;101009.72;3615319;39;20046;-67
2023/10/18 00:41:14;;;;;;;8.05;5.70;;;;;;;8.76;75.03;100997.44;3616431;39;20051;-67
2023/10/18 00:44:07;;;;;;;8.10;5.95;;;;;;;8.77;75.53;100993.78;3614904;39;20409;-67
2023/10/18 00:46:28;;;;;;;6.90;5.65;;;;;;;8.78;74.98;100995.53;3614159;39;20417;-66
2023/10/18 00:48:54;;;;;;;8.23;5.85;;;;;;;8.76;74.77;100994.75;3618101;39;20078;-67
2023/10/18 00:51:24;;;;;;;7.68;6.15;;;;;;;8.75;74.69;100990.31;3614543;39;20058;-68
2023/10/18 00:53:51;;;;;;;7.93;6.10;;;;;;;8.72;75.11;100994.03;3616920;39;20045;-67
2023/10/18 00:56:17;;;;;;;10.23;6.20;;;;;;;8.73;75.25;100986.88;3614098;39;20348;-67
2023/10/18 00:58:44;;;;;;;10.82;6.05;;;;;;;8.72;75.56;100990.47;3616673;39;20047;-67
2023/10/18 01:01:11;;;;;;;7.35;5.80;;;;;;;8.53;74.95;100945.88;3620679;39;20102;-67
2023/10/18 01:03:46;;;;;;;8.07;5.78;;;;;;;8.68;75.64;100972.81;3615027;39;20119;-67
2023/10/18 01:06:22;;;;;;;7.05;5.78;;;;;;;8.67;74.92;100961.25;3609024;39;20043;-66
2023/10/18 01:08:49;;;;;;;7.30;5.65;;;;;;;8.65;75.12;100960.44;3619559;39;20043;-67
2023/10/18 01:11:19;;;;;;;6.68;5.97;;;;;;;8.62;74.67;100957.06;3615334;39;20046;-68
2023/10/18 01:13:45;;;;;;;8.57;6.13;;;;;;;8.58;74.90;100949.19;3617099;39;20041;-66
2023/10/18 01:16:14;;;;;;;7.25;6.30;;;;;;;8.58;75.38;100946.50;3619442;39;20070;-66
2023/10/18 01:18:44;;;;;;;7.35;5.82;;;;;;;8.53;75.17;100931.59;3618296;39;20301;-66
2023/10/18 01:21:17;;;;;;;7.47;6.03;;;;;;;8.58;75.50;100943.81;3604554;39;20451;-66
2023/10/18 01:23:54;;;;;;;9.05;5.90;;;;;;;8.59;75.75;100940.22;3614746;39;20050;-66
2023/10/18 01:26:25;;;;;;;8.77;5.95;;;;;;;8.53;75.57;100926.25;3618616;39;20049;-66
2023/10/18 01:28:54;;;;;;;8.55;6.22;;;;;;;8.58;75.21;100935.78;3618340;39;20055;-66
2023/10/18 01:31:22;;;;;;;9.18;6.05;;;;;;;8.57;75.05;100925.16;3614270;39;20416;-66
2023/10/18 01:33:50;;;;;;;7.10;6.00;;;;;;;8.55;74.89;100927.91;3614050;39;20054;-66
2023/10/18 01:36:18;;;;;;;8.60;5.80;;;;;;;8.55;74.94;100930.59;3615535;39;20058;-66
2023/10/18 01:38:51;;;;;;;8.48;5.70;;;;;;;8.51;75.77;100918.31;3606179;39;20055;-66
2023/10/18 01:41:27;;;;;;;10.18;6.25;;;;;;;8.54;75.58;100928.00;3618312;39;20047;-66
2023/10/18 01:43:56;;;;;;;9.60;6.15;;;;;;;8.45;75.10;100899.88;3614571;39;20055;-66
2023/10/18 01:46:23;;;;;;;8.48;5.88;;;;;;;8.22;75.56;100857.31;3619295;39;20046;-66
2023/10/18 01:48:52;;;;;;;7.53;5.57;;;;;;;8.53;74.63;100907.50;3616124;39;20083;-66
2023/10/18 01:51:19;;;;;;;8.73;6.13;;;;;;;8.23;75.42;100867.94;3614694;39;20062;-66
2023/10/18 01:53:45;;;;;;;7.57;5.90;;;;;;;8.21;75.77;100867.13;3616163;39;20289;-66
2023/10/18 01:56:11;;;;;;;8.18;5.70;;;;;;;8.41;76.07;100900.97;3614324;39;20051;-66
2023/10/18 01:58:38;;;;;;;8.27;5.97;;;;;;;8.37;75.36;100888.63;3616292;39;20061;-66
2023/10/18 02:01:10;;;;;;;6.72;5.70;;;;;;;8.39;75.38;100889.47;3607919;39;20313;-66
2023/10/18 02:03:39;;;;;;;6.45;5.72;;;;;;;8.24;75.49;100858.94;3615371;39;20051;-66
2023/10/18 02:06:13;;;;;;;8.75;6.05;;;;;;;8.33;76.20;100881.72;3614654;39;20317;-66
2023/10/18 02:08:41;;;;;;;6.30;5.40;;;;;;;8.23;75.60;100859.03;3614918;39;20336;-67
2023/10/18 02:11:09;;;;;;;9.05;6.00;;;;;;;8.33;75.05;100887.06;3614581;39;20410;-67
2023/10/18 02:13:38;;;;;;;7.40;5.22;;;;;;;8.27;76.01;100879.34;3609149;39;20051;-66
2023/10/18 02:16:06;;;;;;;6.15;5.28;;;;;;;8.29;75.46;100869.44;3608972;39;20164;-66
2023/10/18 02:18:33;;;;;;;6.63;5.68;;;;;;;8.27;75.82;100865.97;3617157;39;20397;-67
2023/10/18 02:21:00;;;;;;;9.50;5.88;;;;;;;8.10;75.44;100843.59;3617133;39;20099;-67
2023/10/18 02:23:34;;;;;;;8.43;5.70;;;;;;;8.19;76.14;100862.81;3617381;39;20086;-67
2023/10/18 02:26:00;;;;;;;;;;;;;;;8.20;76.27;100872.59;3616404;39;20054;-66
2023/10/18 02:28:27;;;;;;;6.97;5.65;;;;;;;8.21;76.25;100871.63;3613895;39;20065;-67
2023/10/18 02:31:21;;;;;;;7.25;5.30;;;;;;;7.75;75.55;100799.91;3615185;39;20072;-67
2023/10/18 02:33:48;;;;;;;9.23;6.30;;;;;;;8.21;75.14;100874.31;3615883;39;20248;-66
2023/10/18 02:36:20;;;;;;;8.73;5.43;;;;;;;8.20;75.17;100868.09;3617498;39;20043;-67
2023/10/18 02:38:49;;;;;;;7.80;5.38;;;;;;;8.20;75.48;100869.91;3616725;39;20402;-67
2023/10/18 02:41:17;;;;;;;7.68;5.50;;;;;;;8.17;75.23;100865.56;3615197;39;20391;-67
2023/10/18 02:43:48;;;;;;;6.55;5.32;;;;;;;8.16;75.16;100854.94;3614329;39;20129;-67
2023/10/18 02:46:24;;;;;;;8.10;5.60;;;;;;;8.14;75.12;100855.88;3617288;39;20259;-66
2023/10/18 02:48:54;;;;;;;8.32;5.63;;;;;;;8.13;74.60;100854.16;3614353;39;20035;-67
2023/10/18 02:51:22;;;;;;;9.50;5.80;;;;;;;8.12;75.70;100852.44;3614187;39;20370;-66
2023/10/18 02:56:39;;;;;;;7.55;5.60;;;;;;;8.11;75.19;100839.97;3614246;39;20050;-66
2023/10/18 02:59:08;;;;;;;6.97;5.40;;;;;;;8.11;75.29;100847.13;3614551;39;20051;-66
2023/10/18 03:01:37;;;;;;;7.00;5.43;;;;;;;8.06;75.21;100831.31;3616571;39;20062;-67
2023/10/18 03:04:07;;;;;;;6.68;5.72;;;;;;;8.06;76.08;100830.47;3617325;39;20043;-67
2023/10/18 03:06:33;;;;;;;8.30;5.85;;;;;;;7.97;75.83;100812.19;3615066;39;20137;-66
2023/10/18 03:09:00;;;;;;;9.27;6.22;;;;;;;7.90;74.84;100795.59;3613953;39;20134;-66
2023/10/18 03:11:27;;;;;;;6.78;5.68;;;;;;;8.05;75.50;100829.56;3614965;39;20063;-67
2023/10/18 03:13:57;;;;;;;7.88;5.40;;;;;;;8.05;75.83;100826.88;3617111;39;20074;-67
2023/10/18 03:18:59;;;;;;;10.65;5.97;;;;;;;8.03;75.26;100807.38;3615055;39;20401;-66
2023/10/18 03:21:32;;;;;;;8.63;5.82;;;;;;;7.91;75.92;100786.59;3615387;39;20531;-66
2023/10/18 03:23:57;;;;;;;7.22;5.45;;;;;;;8.08;75.89;100802.63;3615498;39;20059;-66
2023/10/18 03:26:33;;;;;;;10.57;5.88;;;;;;;8.05;75.34;100818.84;3615230;39;20073;-67
2023/10/18 03:29:05;;;;;;;7.43;5.57;;;;;;;8.06;76.35;100807.22;3619423;39;20054;-66
2023/10/18 03:31:35;;;;;;;7.45;5.70;;;;;;;8.04;75.86;100806.44;3617426;39;20083;-66
2023/10/18 03:34:02;;;;;;;7.45;5.95;;;;;;;8.04;75.78;100801.06;3616789;39;20043;-66
2023/10/18 03:36:33;;;;;;;6.78;5.72;;;;;;;8.06;75.26;100799.19;3614879;39;20070;-67
2023/10/18 03:39:00;;;;;;;7.72;5.80;;;;;;;7.91;74.88;100767.88;3615719;39;20136;-66
2023/10/18 03:41:40;;;;;;;7.50;6.00;;;;;;;7.99;75.50;100775.47;3616881;39;20103;-66
2023/10/18 03:44:13;;;;;;;6.93;5.32;;;;;;;8.05;75.24;100775.16;3617519;39;20400;-66
2023/10/18 03:46:48;;;;;;;7.65;5.95;;;;;;;8.01;75.84;100768.25;3615009;39;20054;-66
2023/10/18 03:49:27;;;;;;;8.30;6.05;;;;;;;8.02;76.34;100770.84;3618726;39;20080;-66
2023/10/18 03:51:56;;;;;;;9.45;5.95;;;;;;;8.03;75.80;100767.22;3616716;39;20044;-66
2023/10/18 03:54:23;;;;;;;6.80;5.88;;;;;;;8.05;76.01;100761.78;3615222;39;20057;-66
2023/10/18 03:56:53;;;;;;;8.30;6.13;;;;;;;8.05;75.41;100757.28;3618109;39;20086;-66
2023/10/18 03:59:23;;;;;;;6.18;5.32;;;;;;;8.05;75.32;100743.91;3616816;39;20050;-66
2023/10/18 04:04:38;;;;;;;7.88;5.95;;;;;;;8.08;75.82;100746.41;3615854;39;20124;-66
2023/10/18 04:07:12;;;;;;;7.57;5.82;;;;;;;8.10;75.19;100736.50;3615256;39;20050;-66
2023/10/18 04:10:11;;;;;;;8.25;5.40;;;;;;;8.09;74.98;100742.81;3615341;39;20305;-66
2023/10/18 04:12:32;;;;;;;8.32;5.95;;;;;;;7.84;75.25;100696.88;3614458;39;20083;-66
2023/10/18 04:14:59;;;;;;;8.25;5.82;;;;;;;8.11;75.23;100748.94;3615230;39;20042;-66
2023/10/18 04:17:36;;;;;;;7.32;5.93;;;;;;;8.08;75.16;100743.75;3617979;39;20075;-66
2023/10/18 04:20:23;;;;;;;8.07;6.10;;;;;;;8.07;75.74;100734.00;3615086;39;20367;-67
2023/10/18 04:22:50;;;;;;;8.38;6.10;;;;;;;7.85;74.75;100694.09;3614830;39;20069;-66
2023/10/18 04:25:32;;;;;;;7.43;5.43;;;;;;;8.11;74.93;100727.53;3616790;39;20051;-66
2023/10/18 04:27:59;;;;;;;6.18;5.55;;;;;;;7.67;75.39;100649.59;3615506;39;20059;-68
2023/10/18 04:30:32;;;;;;;7.72;6.10;;;;;;;8.11;74.44;100713.28;3615244;39;20158;-67
2023/10/18 04:33:00;;;;;;;6.72;5.45;;;;;;;8.12;75.50;100713.22;3616233;39;20053;-67
2023/10/18 04:35:32;;;;;;;7.43;5.80;;;;;;;8.12;75.00;100715.88;3614893;39;20385;-67
2023/10/18 04:37:59;;;;;;;6.43;5.38;;;;;;;8.12;74.95;100702.50;3616537;39;20086;-67
2023/10/18 04:40:28;;;;;;;6.93;5.75;;;;;;;8.13;74.72;100703.34;3614622;39;20135;-67
2023/10/18 04:42:55;;;;;;;8.85;5.70;;;;;;;8.15;74.25;100706.81;3614633;39;20119;-67
2023/10/18 04:45:23;;;;;;;5.90;5.30;;;;;;;8.11;74.70;100705.25;3614038;39;20390;-67
2023/10/18 04:48:05;;;;;;;7.25;5.50;;;;;;;8.11;74.10;100700.75;3605335;39;20400;-67
2023/10/18 04:50:38;;;;;;;8.07;5.97;;;;;;;8.12;74.30;100701.63;3615530;39;20050;-67
2023/10/18 04:53:11;;;;;;;7.25;5.32;;;;;;;8.08;74.57;100690.19;3616621;39;20094;-68
2023/10/18 04:55:46;;;;;;;8.18;5.78;;;;;;;8.07;73.75;100688.47;3614986;39;20080;-65
2023/10/18 04:58:16;;;;;;;7.22;5.72;;;;;;;8.12;73.95;100686.44;3614797;39;20294;-65
2023/10/18 05:03:37;;;;;;;8.20;5.80;;;;;;;8.06;73.92;100681.41;3610162;39;20172;-68
2023/10/18 05:06:04;;;;;;;8.10;5.90;;;;;;;8.07;73.87;100671.56;3615927;39;20115;-67
2023/10/18 05:08:30;;;;;;;9.10;6.32;;;;;;;8.07;74.05;100675.09;3614810;39;20059;-67
2023/10/18 05:11:22;;;;;;;8.55;5.90;;;;;;;7.94;74.10;100649.09;3614829;39;20477;-66
2023/10/18 05:13:42;;;;;;;8.63;5.93;;;;;;;8.02;74.06;100657.53;3614424;39;20096;-66
2023/10/18 05:16:11;;;;;;;8.35;5.78;;;;;;;8.08;74.03;100662.56;3614082;39;20059;-67
2023/10/18 05:18:37;;;;;;;8.68;5.78;;;;;;;8.09;74.12;100662.50;3618573;39;20127;-68
2023/10/18 05:21:10;;;;;;;10.27;5.88;;;;;;;8.07;74.44;100653.69;3615482;39;20054;-67
2023/10/18 05:23:36;;;;;;;10.63;6.22;;;;;;;8.08;74.12;100663.44;3614708;39;20047;-67
2023/10/18 05:26:08;;;;;;;8.13;6.05;;;;;;;8.02;74.02;100647.69;3614226;39;20050;-66
2023/10/18 05:28:57;;;;;;;9.50;6.07;;;;;;;8.09;73.99;100653.63;3614233;39;20050;-66
2023/10/18 05:31:27;;;;;;;8.18;5.90;;;;;;;8.10;74.59;100653.50;3614208;39;20151;-66
2023/10/18 05:37:19;;;;;;;7.95;5.80;;;;;;;8.10;74.21;100647.31;3614364;39;20054;-66
2023/10/18 05:41:59;;;;;;;7.68;5.78;;;;;;;8.12;74.31;100648.94;3604445;39;20062;-67
2023/10/18 05:44:28;;;;;;;9.05;5.95;;;;;;;8.13;74.46;100650.66;3614544;39;20131;-66
2023/10/18 05:46:54;;;;;;;10.45;6.70;;;;;;;8.13;74.01;100655.16;3614296;39;20055;-66
2023/10/18 05:49:28;;;;;;;7.97;5.85;;;;;;;8.14;73.81;100651.53;3614492;39;20064;-67
2023/10/18 05:52:15;;;;;;;11.25;6.32;;;;;;;8.13;74.34;100648.00;3614329;39;20275;-67
2023/10/18 05:54:43;;;;;;;10.05;6.88;;;;;;;8.11;73.24;100652.56;3616430;39;20058;-67
2023/10/18 05:57:15;;;;;;;9.15;6.68;;;;;;;8.08;73.43;100642.00;3619548;39;20042;-67
2023/10/18 05:59:41;;;;;;;11.32;6.70;;;;;;;8.10;73.76;100636.59;3615086;39;20043;-67
2023/10/18 06:02:10;;;;;;;9.25;6.30;;;;;;;8.07;73.73;100629.59;3614320;39;20051;-67
2023/10/18 06:04:42;;;;;;;11.80;6.50;;;;;;;8.03;73.90;100628.03;3614222;39;20091;-67
2023/10/18 06:07:10;;;;;;;7.68;5.93;;;;;;;8.08;73.59;100636.66;3621254;39;20366;-67
2023/10/18 06:09:46;;;;;;;10.02;6.72;;;;;;;8.09;73.52;100646.44;3623643;39;20122;-68
2023/10/18 06:12:49;;;;;;;9.85;6.30;;;;;;;7.92;73.74;100611.69;3614602;39;20083;-67
2023/10/18 06:15:11;;;;;;;10.05;6.55;;;;;;;8.04;73.61;100624.41;3612578;39;20343;-67
2023/10/18 06:17:46;;;;;;;8.43;6.35;;;;;;;7.93;73.39;100589.34;3605095;39;20404;-67
2023/10/18 06:20:27;;;;;;;8.82;6.95;;;;;;;8.08;73.58;100614.38;3617984;39;20354;-67
2023/10/18 06:23:09;;;;;;;7.90;6.68;;;;;;;8.08;73.91;100614.38;3614238;39;20058;-66
2023/10/18 06:25:52;;;;;;;9.10;6.90;;;;;;;8.08;72.90;100601.00;3616014;39;20054;-66
2023/10/18 06:28:21;;;;;;;10.55;7.20;;;;;;;8.09;73.81;100600.06;3621279;39;20050;-65
2023/10/18 06:30:51;;;;;;;10.98;6.90;;;;;;;8.09;72.53;100603.59;3616136;39;20385;-65
2023/10/18 06:33:19;;;;;;;10.05;6.10;;;;;;;8.07;73.50;100605.50;3616641;39;20380;-65
2023/10/18 06:35:52;;;;;;;14.32;7.07;;;;;;;7.89;73.17;100567.22;3613926;39;20051;-65
2023/10/18 06:38:25;;;;;;;10.50;6.72;;;;;;;8.11;72.78;100595.47;3620624;39;20301;-66
2023/10/18 06:40:53;;;;;;;8.00;6.32;;;;;;;8.12;73.12;100592.72;3621963;39;20054;-66
2023/10/18 06:43:20;;;;;;;7.78;5.97;;;;;;;8.15;72.46;100591.69;3621347;39;20057;-66
2023/10/18 06:45:50;;;;;;;7.57;5.68;;;;;;;8.19;73.21;100593.25;3615199;39;20061;-66
2023/10/18 06:48:17;;;;;;;8.02;6.10;;;;;;;8.20;72.91;100592.28;3613676;39;20047;-66
2023/10/18 06:50:46;;;;;;;9.45;6.68;;;;;;;8.24;72.29;100584.94;3613775;39;20116;-66
2023/10/18 06:53:15;;;;;;;8.40;5.90;;;;;;;8.25;71.85;100581.34;3613628;39;20055;-66
2023/10/18 07:01:00;;;;;;;11.38;6.38;;;;;;;8.27;72.45;100571.38;3614911;39;20415;-64
2023/10/18 07:03:29;;;;;;;9.38;5.85;;;;;;;8.32;72.39;100569.31;3617967;39;20055;-64
2023/10/18 07:06:04;;;;;;;8.82;6.20;;;;;;;8.11;71.68;100532.09;3616085;39;20323;-64
2023/10/18 07:08:33;;;;;;;8.55;5.90;;;;;;;8.20;71.93;100537.88;3615319;39;20086;-64
2023/10/18 07:11:08;;;;;;;10.38;5.82;;;;;;;8.40;71.72;100571.59;3619194;39;20113;-65
2023/10/18 07:13:34;;;;;;;10.07;6.05;;;;;;;8.29;71.54;100532.88;3616692;39;20455;-64
2023/10/18 07:16:06;;;;;;;6.70;5.72;;;;;;;8.40;71.38;100545.66;3616693;39;20138;-65
2023/10/18 07:18:35;;;;;;;9.75;6.43;;;;;;;8.53;70.53;100557.44;3613794;39;20087;-64
2023/10/18 07:21:09;;;;;;;9.73;6.25;;;;;;;8.54;70.88;100548.44;3613977;39;20053;-64
2023/10/18 07:23:36;;;;;;;9.45;5.53;;;;;;;8.61;70.79;100543.56;3620528;39;20123;-64
2023/10/18 07:26:13;;;;;;;11.70;5.40;;;;;;;8.55;69.99;100507.28;3615568;39;20347;-64
2023/10/18 07:28:40;;;;;;;7.20;5.40;;;;;;;8.63;69.98;100516.69;3617458;39;20053;-65
2023/10/18 07:31:09;;;;;;;8.23;5.45;;;;;;;8.78;69.39;100534.53;3613728;39;20050;-64
2023/10/18 07:33:42;;;;;;;6.82;5.28;;;;;;;8.81;69.63;100535.22;3613677;39;20057;-64
2023/10/18 07:36:11;;;;;;;9.93;5.80;;;;;;;8.86;68.47;100539.47;3613526;39;20047;-64
2023/10/18 07:38:55;;;;;;;8.07;5.10;;;;;;;8.93;69.17;100528.25;3613517;39;20325;-64
2023/10/18 07:41:26;;;;;;;10.13;5.15;;;;;;;8.97;68.97;100523.59;3616831;39;20451;-65
2023/10/18 07:43:52;;;;;;;8.30;5.70;;;;;;;8.97;67.97;100519.06;3615850;39;20099;-64
2023/10/18 07:46:18;;;;;;;6.50;5.20;;;;;;;9.08;68.51;100518.44;3616119;39;20403;-64
2023/10/18 07:48:49;;;;;;;9.98;5.50;;;;;;;9.15;67.88;100516.25;3616186;39;20051;-64
2023/10/18 07:51:24;;;;;;;8.32;5.80;;;;;;;9.23;68.62;100508.63;3613560;39;20043;-64
2023/10/18 07:53:53;;;;;;;7.22;5.10;;;;;;;9.28;68.58;100517.22;3613278;39;20041;-67
2023/10/18 07:56:27;;;;;;;11.65;5.85;;;;;;;9.31;67.96;100500.94;3618474;39;20119;-65
2023/10/18 07:58:55;;;;;;;9.80;5.90;;;;;;;9.38;67.26;100496.91;3618627;39;20093;-65
2023/10/18 08:04:22;;;;;;;8.57;5.53;;;;;;;9.48;67.26;100503.44;3606146;39;20062;-65
2023/10/18 08:06:50;;;;;;;8.73;5.97;;;;;;;9.59;67.69;100504.59;3615634;39;20341;-65
2023/10/18 08:09:20;;;;;;;9.32;5.45;;;;;;;9.71;66.07;100501.13;3616349;39;20050;-65
2023/10/18 08:11:47;;;;;;;12.75;5.47;;;;;;;9.71;66.56;100488.56;3617208;39;20468;-65
2023/10/18 08:14:16;;;;;;;8.68;5.53;;;;;;;9.86;66.93;100492.09;3614984;39;20378;-65
2023/10/18 08:16:44;;;;;;;7.35;5.03;;;;;;;9.98;66.52;100490.44;3618759;39;20313;-65
2023/10/18 08:19:13;;;;;;;6.95;5.68;;;;;;;10.13;65.43;100493.97;3618719;39;20092;-65
2023/10/18 08:21:39;;;;;;;9.65;5.28;;;;;;;10.24;65.81;100491.41;3620827;39;20049;-65
2023/10/18 08:24:14;;;;;;;9.13;5.00;;;;;;;10.30;65.61;100487.50;3616578;39;20274;-65
2023/10/18 08:26:46;;;;;;;7.20;5.28;;;;;;;10.39;64.59;100479.69;3617089;39;20043;-65
2023/10/18 08:29:17;;;;;;;9.23;5.77;;;;;;;10.49;64.59;100471.00;3614651;39;20108;-65
2023/10/18 08:31:48;;;;;;;9.57;5.82;;;;;;;10.56;64.89;100469.63;3615093;39;20333;-65
2023/10/18 08:34:23;;;;;;;11.45;5.32;;;;;;;10.61;64.05;100467.50;3615942;39;20059;-65
2023/10/18 08:37:01;;;;;;;7.65;5.57;;;;;;;10.68;63.53;100463.44;3617011;39;20131;-65
2023/10/18 08:39:28;;;;;;;7.57;5.60;;;;;;;10.71;63.28;100460.53;3605653;39;20055;-66
2023/10/18 08:42:05;;;;;;;10.43;5.35;;;;;;;10.71;62.76;100468.59;3616979;39;20058;-66
2023/10/18 08:44:35;;;;;;;8.70;5.40;;;;;;;10.73;63.17;100460.44;3615420;39;20061;-64
2023/10/18 08:49:53;;;;;;;8.63;5.65;;;;;;;10.80;62.87;100461.75;3620830;39;20392;-64
2023/10/18 08:52:21;;;;;;;11.52;7.18;;;;;;;10.84;63.69;100461.41;3620599;39;20135;-64
2023/10/18 08:54:48;;;;;;;9.98;5.60;;;;;;;10.99;63.49;100456.81;3617423;39;20131;-64
2023/10/18 08:57:34;;;;;;;7.07;5.65;;;;;;;11.10;63.34;100458.75;3617283;39;20046;-64
2023/10/18 09:02:51;;;;;;;7.38;4.90;;;;;;;11.51;62.70;100446.88;3610846;39;20050;-64
2023/10/18 09:05:23;;;;;;;6.40;5.20;;;;;;;11.69;62.08;100448.25;3615849;39;20050;-65
2023/10/18 09:07:54;;;;;;;7.53;5.05;;;;;;;11.79;61.42;100435.81;3616413;39;20055;-65
2023/10/18 09:18:21;;;;;;;6.03;4.60;;;;;;;12.16;59.17;100411.59;3617594;39;20061;-65
2023/10/18 09:20:48;;;;;;;7.18;4.20;;;;;;;12.26;59.85;100409.91;3605438;39;20062;-65
2023/10/18 09:23:24;;;;;;;11.77;5.35;;;;;;;12.39;60.13;100401.75;3614292;39;20043;-66
2023/10/18 09:28:37;;;;;;;8.45;4.75;;;;;;;12.84;59.00;100395.63;3614822;39;20135;-66
2023/10/18 09:31:12;;;;;;;7.05;4.65;;;;;;;12.95;58.18;100387.56;3614123;39;20055;-65
2023/10/18 09:33:48;;;;;;;6.20;4.55;;;;;;;13.23;57.16;100403.28;3616169;39;20054;-66
2023/10/18 09:36:20;;;;;;;7.70;4.60;;;;;;;13.39;57.42;100396.69;3614357;39;20441;-66
2023/10/18 09:38:48;;;;;;;6.03;4.63;;;;;;;13.59;57.56;100397.78;3614547;39;20366;-65
2023/10/18 09:41:15;;;;;;;7.22;4.45;;;;;;;13.68;56.55;100378.97;3607068;39;20079;-65
2023/10/18 09:43:42;;;;;;;7.00;4.55;;;;;;;13.74;55.52;100369.50;3613306;39;20440;-65
2023/10/18 09:46:08;;;;;;;6.25;4.68;;;;;;;13.84;56.42;100364.19;3616225;39;20061;-65
2023/10/18 09:48:41;;;;;;;6.88;4.50;;;;;;;13.99;55.52;100367.47;3616267;39;20049;-66
2023/10/18 09:51:08;;;;;;;6.10;4.28;;;;;;;14.03;55.57;100358.97;3615348;39;20119;-65
2023/10/18 09:53:42;;;;;;;9.68;4.68;;;;;;;14.16;54.82;100354.25;3614476;39;20043;-65
2023/10/18 09:56:12;;;;;;;6.85;4.00;;;;;;;14.34;55.07;100335.63;3614150;39;20100;-65
2023/10/18 09:58:42;;;;;;;7.93;4.32;;;;;;;14.46;53.57;100344.53;3615061;39;20043;-65
2023/10/18 10:01:14;;;;;;;6.95;4.30;;;;;;;14.48;53.10;100345.25;3614203;39;20051;-66
2023/10/18 10:03:50;;;;;;;8.52;5.20;;;;;;;14.36;54.29;100311.13;3614280;39;20091;-64
2023/10/18 10:06:23;;;;;;;6.22;4.70;;;;;;;14.59;54.64;100312.75;3614057;39;20050;-66
2023/10/18 10:09:08;;;;;;;5.90;4.32;;;;;;;14.74;54.21;100332.19;3614693;39;20043;-64
2023/10/18 10:11:36;;;;;;;8.93;4.00;;;;;;;14.92;53.61;100321.59;3615866;39;20360;-65
2023/10/18 10:14:07;;;;;;;4.95;4.00;;;;;;;15.00;53.05;100319.09;3614318;39;20055;-65
2023/10/18 10:16:36;;;;;;;5.85;4.10;;;;;;;15.03;53.29;100316.13;3619420;39;20047;-66
2023/10/18 10:19:11;;;;;;;6.78;4.18;;;;;;;15.15;52.87;100305.16;3617525;39;20090;-66
2023/10/18 10:21:40;;;;;;;6.90;4.15;;;;;;;15.27;52.42;100288.69;3614880;39;20046;-67
2023/10/18 10:29:57;;;;;;;6.15;4.03;;;;;;;15.39;52.82;100286.72;3619604;39;20470;-66
2023/10/18 10:32:24;;;;;;;6.55;4.55;;;;;;;15.40;51.90;100279.44;3616837;39;20062;-65
2023/10/18 10:35:15;;;;;;;9.95;4.35;;;;;;;15.43;51.96;100273.75;3617870;39;20298;-64
2023/10/18 10:37:53;;;;;;;8.88;4.70;;;;;;;15.19;52.05;100249.75;3614071;39;20154;-64
2023/10/18 10:43:02;;;;;;;5.28;4.32;;;;;;;15.43;52.59;100258.34;3616021;39;20058;-65
2023/10/18 10:48:16;;;;;;;8.27;4.50;;;;;;;15.33;52.49;100243.94;3613721;39;20049;-66
2023/10/18 10:50:57;;;;;;;7.53;4.28;;;;;;;15.45;54.45;100245.53;3615935;39;20347;-65
2023/10/18 10:53:34;;;;;;;4.65;4.05;;;;;;;15.59;53.13;100229.88;3615644;39;20062;-65
2023/10/18 10:56:20;;;;;;;4.60;4.10;;;;;;;15.72;52.63;100222.34;3614132;39;20051;-64
2023/10/18 10:58:47;;;;;;;9.13;4.70;;;;;;;15.87;53.46;100218.19;3616041;39;20385;-65
2023/10/18 11:01:13;;;;;;;6.63;4.60;;;;;;;15.93;51.29;100222.19;3615209;39;20042;-65
2023/10/18 11:03:54;;;;;;;8.55;5.00;;;;;;;15.91;51.48;100219.59;3614048;39;20050;-65
2023/10/18 11:06:25;;;;;;;4.65;3.97;;;;;;;16.11;51.44;100198.75;3613545;39;20082;-65
2023/10/18 11:08:52;;;;;;;7.38;4.40;;;;;;;16.31;51.21;100205.00;3616497;39;20061;-64
2023/10/18 11:11:22;;;;;;;9.48;4.65;;;;;;;16.59;50.93;100199.63;3613574;39;20335;-65
2023/10/18 11:13:52;;;;;;;9.23;4.40;;;;;;;16.89;51.30;100193.91;3614168;39;20047;-66
2023/10/18 11:16:20;;;;;;;10.00;4.38;;;;;;;17.11;48.47;100200.78;3613775;39;20150;-65
2023/10/18 11:18:52;;;;;;;6.53;4.60;;;;;;;17.18;49.55;100188.31;3607434;39;20043;-66
2023/10/18 11:21:28;;;;;;;6.60;4.40;;;;;;;17.40;47.49;100181.56;3606905;39;20179;-65
2023/10/18 11:24:04;;;;;;;8.30;4.82;;;;;;;17.30;48.37;100169.09;3614058;39;20043;-65
2023/10/18 11:26:39;;;;;;;4.82;4.30;;;;;;;17.36;49.45;100169.31;3614792;39;20063;-65
2023/10/18 11:29:07;;;;;;;9.25;4.68;;;;;;;17.39;48.54;100157.28;3613572;39;20059;-64
2023/10/18 11:31:37;;;;;;;6.45;4.25;;;;;;;17.27;48.01;100134.91;3605564;39;20047;-65
2023/10/18 11:34:07;;;;;;;9.32;4.88;;;;;;;17.21;47.78;100143.69;3614551;39;20082;-63
2023/10/18 11:36:39;;;;;;;11.20;5.00;;;;;;;17.16;48.42;100146.88;3615185;39;20408;-64
2023/10/18 11:39:18;;;;;;;9.40;4.60;;;;;;;17.19;48.13;100151.16;3606953;39;20086;-65
2023/10/18 11:41:49;;;;;;;7.63;4.90;;;;;;;17.31;48.13;100152.63;3619237;39;20087;-63
2023/10/18 11:44:27;;;;;;;7.70;4.53;;;;;;;17.49;50.00;100127.31;3615907;39;20047;-64
2023/10/18 11:47:02;;;;;;;7.85;5.10;;;;;;;17.51;48.49;100126.16;3615706;39;20050;-64
2023/10/18 11:49:42;;;;;;;8.00;4.13;;;;;;;17.76;46.44;100115.44;3618108;39;20058;-64
2023/10/18 11:52:21;;;;;;;5.72;4.03;;;;;;;17.74;45.80;100107.47;3614910;39;20336;-64
2023/10/18 11:54:51;;;;;;;7.88;4.90;;;;;;;17.71;48.59;100110.50;3617548;39;20120;-64
2023/10/18 11:57:39;;;;;;;7.45;4.32;;;;;;;17.76;48.60;100105.47;3617713;39;20061;-64
2023/10/18 12:02:54;;;;;;;5.25;3.83;;;;;;;17.89;47.44;100098.75;3617145;39;20297;-66
2023/10/18 12:05:23;;;;;;;11.93;4.43;;;;;;;17.91;47.37;100096.75;3617560;39;20059;-64
2023/10/18 12:07:53;;;;;;;8.50;4.43;;;;;;;17.80;46.94;100070.69;3615379;39;20094;-65
2023/10/18 12:10:25;;;;;;;7.60;4.15;;;;;;;17.80;46.05;100076.97;3614992;39;20059;-64
2023/10/18 12:12:55;;;;;;;5.13;3.72;;;;;;;17.71;46.59;100074.31;3616181;39;20047;-65
2023/10/18 12:15:25;;;;;;;7.25;4.20;;;;;;;17.61;47.95;100058.13;3615289;39;20063;-65
2023/10/18 12:17:52;;;;;;;5.53;4.35;;;;;;;17.64;48.12;100052.38;3615847;39;20136;-64
2023/10/18 12:20:25;;;;;;;6.18;4.00;;;;;;;17.71;47.49;100053.41;3620674;39;20047;-64
2023/10/18 12:22:51;;;;;;;6.97;4.05;;;;;;;17.75;47.14;100043.06;3619124;39;20051;-65
2023/10/18 12:25:20;;;;;;;10.15;4.32;;;;;;;17.64;47.40;100052.38;3622044;39;20096;-64
2023/10/18 12:27:52;;;;;;;7.93;4.25;;;;;;;17.58;48.17;100042.97;3620917;39;20074;-65
2023/10/18 12:30:38;;;;;;;7.07;3.90;;;;;;;17.60;47.87;100042.78;3619831;39;20389;-66
2023/10/18 12:33:06;;;;;;;7.32;3.90;;;;;;;17.66;47.89;100044.88;3610163;39;20123;-65
2023/10/18 12:35:34;;;;;;;5.45;4.10;;;;;;;17.81;47.20;100027.00;3619413;39;20116;-66
2023/10/18 12:38:07;;;;;;;13.85;4.10;;;;;;;17.96;46.12;99991.06;3618813;39;20042;-65
2023/10/18 12:40:40;;;;;;;14.23;5.03;;;;;;;18.28;46.06;100004.78;3616436;39;20144;-65
2023/10/18 12:43:17;;;;;;;13.02;4.00;;;;;;;18.22;46.33;99997.28;3618605;39;20054;-66